createdAt,value
2022-09-18T00:01:32.814Z,9.62
2022-09-18T00:04:03.806Z,9.64
2022-09-18T00:06:35.419Z,9.63
2022-09-18T00:09:06.637Z,9.74
2022-09-18T00:11:39.436Z,9.79
2022-09-18T00:14:10.623Z,9.81
2022-09-18T00:16:39.039Z,9.79
2022-09-18T00:19:06.475Z,9.82
2022-09-18T00:21:35.794Z,9.91
2022-09-18T00:24:04.489Z,9.83
2022-09-18T00:26:31.718Z,9.98
2022-09-18T00:28:59.253Z,9.93
2022-09-18T00:31:30.790Z,9.64
2022-09-18T00:34:00.810Z,10.05
2022-09-18T00:36:32.477Z,9.93
2022-09-18T00:39:00.302Z,9.65
2022-09-18T00:41:31.508Z,9.62
2022-09-18T00:44:38.217Z,9.51
2022-09-18T00:47:11.134Z,9.40
2022-09-18T00:49:50.062Z,9.45
2022-09-18T00:52:21.595Z,9.43
2022-09-18T00:54:54.836Z,9.48
2022-09-18T00:57:30.124Z,9.53
2022-09-18T00:59:58.004Z,9.56
2022-09-18T01:02:25.036Z,9.53
2022-09-18T01:04:52.203Z,9.63
2022-09-18T01:08:00.423Z,9.71
2022-09-18T01:10:36.141Z,9.73
2022-09-18T01:13:25.698Z,9.67
2022-09-18T01:16:25.807Z,9.83
2022-09-18T01:19:01.637Z,9.82
2022-09-18T01:21:56.663Z,9.83
2022-09-18T01:25:00.558Z,9.82
2022-09-18T01:27:49.627Z,9.88
2022-09-18T01:30:17.330Z,9.84
2022-09-18T01:33:04.112Z,9.85
2022-09-18T01:35:42.347Z,9.83
2022-09-18T01:38:21.834Z,9.78
2022-09-18T01:41:09.747Z,9.81
2022-09-18T01:43:40.476Z,9.74
2022-09-18T01:46:16.484Z,9.75
2022-09-18T01:49:01.051Z,9.70
2022-09-18T01:52:00.525Z,9.73
2022-09-18T01:54:33.612Z,9.78
2022-09-18T01:57:41.319Z,9.78
2022-09-18T02:00:13.839Z,8.97
2022-09-18T02:02:56.471Z,9.74
2022-09-18T02:05:56.024Z,9.64
2022-09-18T02:08:45.878Z,9.62
2022-09-18T02:11:17.072Z,9.61
2022-09-18T02:14:02.255Z,9.53
2022-09-18T02:16:55.548Z,9.50
2022-09-18T02:19:38.779Z,9.44
2022-09-18T02:22:11.103Z,9.43
2022-09-18T02:24:42.287Z,9.47
2022-09-18T02:27:12.636Z,9.51
2022-09-18T02:29:42.736Z,9.48
2022-09-18T02:32:10.215Z,9.46
2022-09-18T02:34:37.670Z,9.43
2022-09-18T02:37:08.300Z,8.71
2022-09-18T02:40:21.771Z,9.34
2022-09-18T02:43:32.255Z,9.33
2022-09-18T02:46:32.389Z,9.35
2022-09-18T02:49:49.151Z,9.25
2022-09-18T02:52:29.706Z,9.25
2022-09-18T02:55:17.187Z,9.24
2022-09-18T02:57:56.841Z,9.22
2022-09-18T03:00:27.332Z,9.16
2022-09-18T03:03:01.128Z,9.21
2022-09-18T03:05:45.044Z,9.26
2022-09-18T03:08:12.702Z,9.24
2022-09-18T03:10:39.741Z,9.24
2022-09-18T03:13:07.059Z,9.15
2022-09-18T03:15:34.086Z,9.16
2022-09-18T03:18:01.148Z,9.19
2022-09-18T03:20:28.173Z,8.58
2022-09-18T03:22:55.244Z,9.12
2022-09-18T03:25:22.384Z,9.25
2022-09-18T03:27:49.330Z,9.06
2022-09-18T03:30:25.963Z,9.18
2022-09-18T03:32:53.652Z,9.20
2022-09-18T03:35:20.881Z,9.15
2022-09-18T03:37:48.957Z,9.16
2022-09-18T03:40:20.221Z,9.23
2022-09-18T03:42:49.186Z,9.22
2022-09-18T03:45:16.779Z,9.21
2022-09-18T03:47:44.655Z,9.18
2022-09-18T03:50:11.650Z,9.21
2022-09-18T03:52:39.958Z,9.21
2022-09-18T03:55:29.536Z,9.18
2022-09-18T03:58:15.589Z,9.20
2022-09-18T04:01:09.686Z,9.21
2022-09-18T04:03:56.858Z,9.11
2022-09-18T04:06:59.333Z,9.11
2022-09-18T04:09:45.385Z,9.06
2022-09-18T04:12:12.769Z,9.16
2022-09-18T04:14:43.352Z,9.17
2022-09-18T04:17:11.113Z,9.20
2022-09-18T04:19:38.515Z,9.23
2022-09-18T04:22:09.572Z,9.19
2022-09-18T04:24:39.730Z,9.23
2022-09-18T04:27:08.230Z,9.22
2022-09-18T04:29:35.655Z,9.24
2022-09-18T04:32:03.322Z,9.28
2022-09-18T04:34:30.843Z,9.20
2022-09-18T04:36:58.166Z,9.19
2022-09-18T04:39:28.366Z,9.24
2022-09-18T04:42:00.409Z,9.23
2022-09-18T04:44:27.912Z,9.21
2022-09-18T04:46:55.387Z,9.21
2022-09-18T04:49:23.358Z,9.22
2022-09-18T04:51:50.771Z,9.22
2022-09-18T04:54:18.187Z,9.32
2022-09-18T04:56:45.598Z,9.30
2022-09-18T04:59:13.627Z,9.26
2022-09-18T05:01:45.634Z,9.33
2022-09-18T05:04:16.335Z,9.23
2022-09-18T05:06:58.580Z,9.30
2022-09-18T05:09:25.670Z,9.24
2022-09-18T05:11:54.506Z,9.25
2022-09-18T05:14:23.487Z,9.27
2022-09-18T05:16:54.746Z,9.28
2022-09-18T05:19:28.987Z,9.19
2022-09-18T05:22:02.726Z,9.25
2022-09-18T05:24:32.630Z,9.15
2022-09-18T05:27:00.247Z,9.37
2022-09-18T05:29:29.078Z,9.20
2022-09-18T05:32:03.336Z,9.29
2022-09-18T05:34:35.032Z,9.29
2022-09-18T05:37:02.722Z,9.38
2022-09-18T05:39:29.878Z,9.21
2022-09-18T05:41:59.366Z,9.42
2022-09-18T05:44:26.269Z,9.37
2022-09-18T05:46:53.326Z,9.45
2022-09-18T05:49:20.575Z,9.40
2022-09-18T05:51:47.622Z,9.04
2022-09-18T05:54:17.666Z,9.36
2022-09-18T05:56:48.499Z,9.25
2022-09-18T05:59:16.293Z,9.43
2022-09-18T06:01:47.444Z,9.45
2022-09-18T06:04:43.675Z,9.51
2022-09-18T06:07:13.082Z,9.38
2022-09-18T06:09:40.094Z,9.36
2022-09-18T06:12:07.366Z,9.40
2022-09-18T06:14:36.136Z,9.49
2022-09-18T06:17:03.717Z,9.44
2022-09-18T06:19:34.713Z,9.47
2022-09-18T06:22:01.931Z,9.47
2022-09-18T06:24:29.087Z,9.51
2022-09-18T06:27:16.438Z,9.59
2022-09-18T06:29:44.856Z,9.54
2022-09-18T06:32:25.060Z,9.63
2022-09-18T06:34:54.979Z,9.75
2022-09-18T06:37:21.921Z,9.73
2022-09-18T06:40:21.381Z,9.76
2022-09-18T06:43:09.734Z,9.99
2022-09-18T06:45:58.497Z,10.00
2022-09-18T06:48:29.343Z,9.81
2022-09-18T06:50:59.580Z,10.08
2022-09-18T06:53:30.787Z,9.95
2022-09-18T06:56:03.442Z,10.16
2022-09-18T06:58:34.622Z,10.21
2022-09-18T07:01:02.663Z,10.25
2022-09-18T07:03:37.628Z,10.34
2022-09-18T07:06:15.539Z,10.40
2022-09-18T07:08:46.539Z,10.42
2022-09-18T07:11:20.262Z,10.39
2022-09-18T07:13:47.708Z,10.46
2022-09-18T07:16:14.741Z,10.39
2022-09-18T07:18:48.678Z,10.40
2022-09-18T07:21:18.864Z,10.45
2022-09-18T07:23:45.923Z,10.49
2022-09-18T07:26:12.950Z,10.68
2022-09-18T07:28:40.141Z,10.72
2022-09-18T07:31:16.992Z,10.74
2022-09-18T07:33:45.192Z,10.91
2022-09-18T07:36:17.484Z,11.09
2022-09-18T07:38:45.071Z,11.08
2022-09-18T07:41:12.340Z,11.24
2022-09-18T07:43:43.874Z,10.55
2022-09-18T07:46:11.351Z,11.09
2022-09-18T07:48:39.520Z,11.22
2022-09-18T07:51:14.381Z,11.39
2022-09-18T07:53:43.993Z,11.46
2022-09-18T07:56:12.811Z,11.34
2022-09-18T07:58:40.700Z,11.29
2022-09-18T08:01:14.925Z,11.54
2022-09-18T08:03:54.274Z,11.87
2022-09-18T08:06:21.600Z,11.88
2022-09-18T08:09:14.436Z,11.97
2022-09-18T08:12:08.847Z,11.81
2022-09-18T08:14:41.696Z,11.79
2022-09-18T08:17:29.176Z,11.84
2022-09-18T08:20:09.144Z,11.88
2022-09-18T08:22:50.866Z,11.98
2022-09-18T08:25:21.061Z,12.03
2022-09-18T08:27:49.369Z,11.91
2022-09-18T08:30:25.029Z,12.08
2022-09-18T08:33:09.075Z,11.25
2022-09-18T08:35:37.268Z,11.94
2022-09-18T08:38:18.932Z,11.82
2022-09-18T08:41:39.520Z,12.02
2022-09-18T08:44:15.609Z,12.31
2022-09-18T08:46:48.686Z,12.39
2022-09-18T08:49:51.879Z,12.72
2022-09-18T08:52:28.272Z,13.12
2022-09-18T08:55:31.019Z,13.59
2022-09-18T08:58:30.877Z,13.75
2022-09-18T09:01:07.903Z,13.95
2022-09-18T09:03:44.865Z,13.78
2022-09-18T09:06:42.823Z,13.81
2022-09-18T09:09:57.941Z,14.00
2022-09-18T09:12:54.316Z,13.47
2022-09-18T09:15:29.499Z,13.83
2022-09-18T09:18:19.435Z,13.87
2022-09-18T09:20:57.550Z,13.43
2022-09-18T09:24:17.178Z,13.52
2022-09-18T09:27:53.404Z,14.49
2022-09-18T09:30:46.538Z,15.45
2022-09-18T09:33:37.712Z,17.01
2022-09-18T09:36:21.961Z,16.24
2022-09-18T09:39:02.571Z,15.46
2022-09-18T09:42:08.442Z,15.11
2022-09-18T09:45:25.945Z,15.13
2022-09-18T09:48:35.024Z,15.36
2022-09-18T09:51:25.084Z,16.86
2022-09-18T09:53:55.979Z,17.63
2022-09-18T09:56:46.380Z,16.79
2022-09-18T09:59:43.009Z,15.95
2022-09-18T10:03:03.777Z,16.03
2022-09-18T10:05:41.163Z,16.01
2022-09-18T10:08:15.260Z,16.55
2022-09-18T10:10:53.512Z,17.07
2022-09-18T10:13:36.386Z,17.92
2022-09-18T10:16:12.190Z,18.98
2022-09-18T10:18:48.205Z,18.74
2022-09-18T10:21:17.724Z,18.26
2022-09-18T10:24:05.970Z,18.78
2022-09-18T10:27:03.725Z,18.60
2022-09-18T10:29:35.691Z,17.33
2022-09-18T10:32:07.029Z,16.29
2022-09-18T10:34:46.605Z,17.69
2022-09-18T10:37:17.579Z,18.11
2022-09-18T10:39:57.661Z,18.28
2022-09-18T10:42:28.653Z,18.14
2022-09-18T10:45:27.532Z,18.44
2022-09-18T10:48:22.580Z,18.92
2022-09-18T10:51:04.198Z,19.36
2022-09-18T10:53:43.476Z,19.10
2022-09-18T10:56:33.779Z,18.18
2022-09-18T10:59:29.461Z,16.65
2022-09-18T11:02:06.488Z,15.25
2022-09-18T11:04:37.733Z,15.03
2022-09-18T11:07:07.656Z,15.93
2022-09-18T11:09:41.190Z,16.62
2022-09-18T11:12:18.474Z,17.76
2022-09-18T11:14:58.885Z,18.28
2022-09-18T11:17:30.993Z,18.74
2022-09-18T11:20:03.253Z,18.27
2022-09-18T11:22:52.350Z,17.35
2022-09-18T11:25:28.827Z,16.09
2022-09-18T11:28:28.559Z,16.08
2022-09-18T11:31:05.265Z,15.07
2022-09-18T11:33:53.881Z,15.54
2022-09-18T11:36:32.584Z,15.19
2022-09-18T11:39:03.168Z,15.33
2022-09-18T11:41:37.020Z,15.81
2022-09-18T11:44:18.720Z,16.23
2022-09-18T11:47:13.501Z,16.02
2022-09-18T11:49:46.903Z,16.64
2022-09-18T11:52:45.275Z,17.57
2022-09-18T11:55:18.370Z,18.28
2022-09-18T11:57:57.700Z,18.29
2022-09-18T12:00:31.069Z,18.50
2022-09-18T12:03:31.586Z,17.18
2022-09-18T12:06:41.447Z,16.92
2022-09-18T12:09:42.720Z,16.43
2022-09-18T12:12:23.595Z,16.81
2022-09-18T12:15:09.557Z,16.46
2022-09-18T12:17:42.785Z,16.02
2022-09-18T12:20:19.403Z,15.92
2022-09-18T12:22:55.627Z,15.78
2022-09-18T12:25:38.042Z,15.51
2022-09-18T12:28:28.330Z,15.24
2022-09-18T12:31:21.886Z,15.13
2022-09-18T12:34:02.595Z,15.45
2022-09-18T12:36:42.401Z,15.61
2022-09-18T12:39:25.688Z,16.06
2022-09-18T12:42:30.777Z,16.19
2022-09-18T12:45:07.232Z,15.55
2022-09-18T12:48:00.676Z,15.35
2022-09-18T12:51:00.709Z,15.18
2022-09-18T12:54:09.838Z,15.24
2022-09-18T12:56:58.031Z,15.22
2022-09-18T12:59:39.092Z,14.80
2022-09-18T13:02:23.840Z,14.88
2022-09-18T13:05:07.311Z,14.88
2022-09-18T13:08:00.647Z,14.62
2022-09-18T13:10:38.600Z,14.60
2022-09-18T13:13:41.169Z,14.27
2022-09-18T13:16:16.751Z,14.51
2022-09-18T13:18:53.294Z,14.63
2022-09-18T13:21:31.200Z,14.75
2022-09-18T13:24:00.620Z,14.96
2022-09-18T13:26:33.595Z,14.66
2022-09-18T13:29:01.141Z,14.57
2022-09-18T13:31:35.600Z,14.65
2022-09-18T13:34:14.825Z,14.76
2022-09-18T13:36:44.582Z,14.79
2022-09-18T13:39:22.312Z,14.78
2022-09-18T13:41:55.939Z,14.84
2022-09-18T13:44:33.239Z,14.68
2022-09-18T13:47:14.800Z,14.86
2022-09-18T13:49:56.186Z,14.99
2022-09-18T13:52:35.253Z,14.72
2022-09-18T13:55:14.841Z,14.71
2022-09-18T13:57:43.848Z,14.68
2022-09-18T14:00:20.498Z,14.84
2022-09-18T14:02:48.793Z,14.91
2022-09-18T14:05:36.388Z,14.62
2022-09-18T14:08:14.541Z,14.51
2022-09-18T14:11:11.755Z,14.32
2022-09-18T14:13:54.127Z,14.25
2022-09-18T14:16:23.851Z,14.14
2022-09-18T14:19:04.877Z,14.01
2022-09-18T14:21:40.016Z,14.09
2022-09-18T14:24:36.504Z,13.70
2022-09-18T14:27:28.666Z,13.61
2022-09-18T14:29:59.171Z,13.46
2022-09-18T14:32:27.720Z,13.52
2022-09-18T14:35:21.768Z,13.48
2022-09-18T14:37:49.179Z,13.49
2022-09-18T14:40:23.058Z,13.27
2022-09-18T14:42:51.090Z,13.25
2022-09-18T14:45:29.921Z,12.94
2022-09-18T14:47:59.157Z,12.93
2022-09-18T14:50:31.313Z,12.87
2022-09-18T14:53:01.706Z,12.84
2022-09-18T14:55:31.880Z,12.63
2022-09-18T14:58:05.127Z,12.61
2022-09-18T15:00:36.297Z,12.44
2022-09-18T15:03:25.932Z,11.64
2022-09-18T15:05:56.987Z,12.30
2022-09-18T15:08:26.934Z,12.25
2022-09-18T15:10:56.756Z,12.19
2022-09-18T15:13:24.822Z,12.07
2022-09-18T15:16:01.754Z,11.94
2022-09-18T15:18:38.049Z,11.89
2022-09-18T15:21:05.679Z,11.53
2022-09-18T15:23:40.416Z,11.37
2022-09-18T15:26:14.870Z,11.32
2022-09-18T15:28:48.219Z,11.20
2022-09-18T15:31:19.275Z,11.19
2022-09-18T15:33:59.694Z,11.04
2022-09-18T15:36:34.256Z,10.91
2022-09-18T15:39:04.336Z,11.04
2022-09-18T15:41:43.719Z,10.79
2022-09-18T15:44:34.236Z,10.78
2022-09-18T15:47:28.630Z,10.90
2022-09-18T15:49:57.313Z,10.82
2022-09-18T15:52:41.457Z,10.87
2022-09-18T15:55:18.914Z,10.81
2022-09-18T15:57:55.056Z,10.77
2022-09-18T16:00:25.334Z,10.74
2022-09-18T16:02:59.533Z,10.71
2022-09-18T16:05:29.433Z,10.65
2022-09-18T16:08:01.491Z,10.74
2022-09-18T16:10:34.946Z,10.79
2022-09-18T16:13:14.338Z,10.84
2022-09-18T16:15:47.603Z,10.73
2022-09-18T16:18:29.165Z,10.76
2022-09-18T16:20:57.740Z,10.83
2022-09-18T16:23:34.209Z,10.77
2022-09-18T16:26:07.102Z,10.72
2022-09-18T16:28:56.575Z,10.75
2022-09-18T16:31:26.843Z,10.69
2022-09-18T16:34:20.625Z,10.68
2022-09-18T16:36:49.086Z,10.69
2022-09-18T16:39:19.405Z,10.76
2022-09-18T16:41:46.950Z,10.81
2022-09-18T16:44:15.366Z,10.79
2022-09-18T16:46:47.974Z,10.78
2022-09-18T16:49:20.172Z,10.82
2022-09-18T16:51:47.653Z,10.79
2022-09-18T16:54:15.258Z,10.83
2022-09-18T16:56:51.582Z,10.87
2022-09-18T16:59:21.831Z,10.86
2022-09-18T17:02:03.420Z,10.82
2022-09-18T17:04:32.565Z,10.84
2022-09-18T17:07:00.489Z,10.79
2022-09-18T17:09:27.987Z,10.80
2022-09-18T17:11:55.393Z,10.76
2022-09-18T17:14:23.357Z,10.74
2022-09-18T17:16:50.922Z,10.63
2022-09-18T17:19:18.989Z,10.65
2022-09-18T17:21:46.881Z,10.67
2022-09-18T17:24:14.329Z,10.67
2022-09-18T17:26:42.228Z,10.57
2022-09-18T17:29:11.306Z,10.52
2022-09-18T17:31:38.736Z,10.51
2022-09-18T17:34:06.183Z,10.52
2022-09-18T17:36:36.712Z,10.51
2022-09-18T17:39:04.832Z,10.45
2022-09-18T17:41:33.125Z,10.51
2022-09-18T17:44:00.703Z,10.43
2022-09-18T17:46:28.143Z,10.53
2022-09-18T17:48:57.232Z,10.55
2022-09-18T17:51:28.634Z,10.55
2022-09-18T17:54:04.786Z,10.51
2022-09-18T17:56:34.042Z,10.32
2022-09-18T17:59:05.415Z,10.26
2022-09-18T18:01:36.495Z,10.15
2022-09-18T18:04:05.156Z,10.21
2022-09-18T18:06:32.859Z,10.20
2022-09-18T18:09:00.630Z,10.26
2022-09-18T18:11:29.451Z,10.30
2022-09-18T18:13:56.831Z,10.27
2022-09-18T18:16:30.537Z,10.19
2022-09-18T18:19:02.953Z,10.24
2022-09-18T18:21:32.052Z,10.23
2022-09-18T18:24:03.410Z,10.18
2022-09-18T18:26:31.404Z,10.19
2022-09-18T18:28:58.781Z,10.18
2022-09-18T18:31:26.692Z,10.22
2022-09-18T18:33:55.628Z,10.15
2022-09-18T18:36:25.794Z,10.15
2022-09-18T18:38:56.063Z,10.10
2022-09-18T18:41:25.066Z,10.07
2022-09-18T18:43:55.397Z,10.14
2022-09-18T18:46:27.119Z,10.15
2022-09-18T18:49:03.892Z,10.07
2022-09-18T18:51:34.660Z,10.07
2022-09-18T18:54:04.429Z,10.03
2022-09-18T18:56:34.191Z,10.02
2022-09-18T18:59:03.490Z,10.08
2022-09-18T19:01:32.322Z,10.12
2022-09-18T19:04:04.309Z,10.14
2022-09-18T19:06:31.711Z,10.06
2022-09-18T19:09:01.428Z,10.02
2022-09-18T19:11:31.249Z,10.01
2022-09-18T19:14:00.169Z,10.00
2022-09-18T19:16:29.809Z,9.94
2022-09-18T19:19:03.644Z,10.00
2022-09-18T19:21:31.111Z,9.98
2022-09-18T19:24:02.054Z,9.86
2022-09-18T19:26:31.098Z,9.87
2022-09-18T19:29:00.488Z,9.90
2022-09-18T19:31:31.054Z,9.94
2022-09-18T19:33:58.544Z,9.90
2022-09-18T19:36:29.150Z,9.94
2022-09-18T19:38:59.001Z,9.90
2022-09-18T19:41:41.424Z,9.91
2022-09-18T19:44:29.118Z,9.72
2022-09-18T19:46:59.955Z,9.70
2022-09-18T19:49:33.056Z,9.62
2022-09-18T19:52:02.198Z,9.62
2022-09-18T19:54:31.111Z,9.63
2022-09-18T19:56:59.139Z,9.62
2022-09-18T19:59:26.518Z,9.56
2022-09-18T20:01:54.681Z,9.63
2022-09-18T20:04:22.074Z,9.74
2022-09-18T20:06:49.486Z,9.69
2022-09-18T20:09:16.925Z,9.71
2022-09-18T20:11:48.051Z,9.71
2022-09-18T20:14:16.389Z,9.62
2022-09-18T20:16:43.996Z,9.60
2022-09-18T20:19:11.477Z,9.57
2022-09-18T20:21:38.942Z,9.61
2022-09-18T20:24:06.889Z,9.62
2022-09-18T20:26:34.375Z,9.52
2022-09-18T20:29:03.020Z,9.48
2022-09-18T20:31:30.654Z,9.48
2022-09-18T20:33:59.680Z,9.45
2022-09-18T20:36:27.283Z,9.46
2022-09-18T20:38:57.993Z,9.48
2022-09-18T20:41:28.103Z,9.48
2022-09-18T20:44:01.600Z,9.46
2022-09-18T20:46:29.431Z,9.43
2022-09-18T20:48:56.993Z,9.40
2022-09-18T20:51:28.662Z,9.38
2022-09-18T20:53:57.737Z,9.32
2022-09-18T20:56:27.915Z,9.29
2022-09-18T20:58:56.661Z,9.37
2022-09-18T21:01:26.758Z,9.30
2022-09-18T21:03:59.890Z,9.26
2022-09-18T21:06:31.657Z,9.20
2022-09-18T21:09:00.150Z,9.22
2022-09-18T21:11:29.955Z,9.18
2022-09-18T21:14:00.964Z,9.21
2022-09-18T21:16:32.449Z,9.28
2022-09-18T21:19:02.060Z,9.35
2022-09-18T21:21:31.840Z,9.39
2022-09-18T21:24:01.510Z,9.34
2022-09-18T21:26:38.039Z,9.28
2022-09-18T21:29:10.453Z,9.27
2022-09-18T21:31:42.446Z,9.22
2022-09-18T21:34:24.197Z,9.27
2022-09-18T21:36:57.545Z,9.31
2022-09-18T21:39:28.101Z,9.29
2022-09-18T21:41:56.931Z,9.27
2022-09-18T21:44:29.528Z,9.29
2022-09-18T21:46:59.785Z,9.30
2022-09-18T21:49:29.076Z,9.24
2022-09-18T21:51:58.886Z,9.21
2022-09-18T21:54:27.231Z,9.25
2022-09-18T21:56:56.129Z,9.33
2022-09-18T21:59:26.160Z,9.37
2022-09-18T22:01:56.987Z,9.41
2022-09-18T22:04:30.506Z,9.40
2022-09-18T22:07:00.368Z,9.46
2022-09-18T22:09:31.044Z,9.44
2022-09-18T22:11:59.933Z,9.48
2022-09-18T22:14:31.894Z,9.45
2022-09-18T22:17:01.147Z,9.45
2022-09-18T22:19:29.646Z,9.49
2022-09-18T22:21:58.124Z,9.57
2022-09-18T22:24:27.228Z,9.61
2022-09-18T22:26:58.142Z,9.58
2022-09-18T22:29:28.810Z,9.64
2022-09-18T22:31:56.760Z,9.62
2022-09-18T22:34:29.328Z,9.63
2022-09-18T22:37:00.196Z,9.72
2022-09-18T22:39:27.783Z,9.76
2022-09-18T22:41:55.388Z,9.81
2022-09-18T22:44:23.345Z,9.91
2022-09-18T22:46:52.825Z,9.95
2022-09-18T22:49:22.015Z,10.02
2022-09-18T22:51:50.620Z,9.98
2022-09-18T22:54:23.593Z,9.92
2022-09-18T22:56:52.161Z,9.87
2022-09-18T22:59:21.789Z,9.92
2022-09-18T23:01:56.658Z,9.95
2022-09-18T23:04:28.991Z,9.79
2022-09-18T23:06:57.940Z,9.68
2022-09-18T23:09:26.052Z,9.68
2022-09-18T23:11:54.174Z,9.65
2022-09-18T23:14:25.828Z,9.62
2022-09-18T23:16:53.891Z,9.55
2022-09-18T23:19:26.958Z,9.59
2022-09-18T23:21:55.132Z,9.48
2022-09-18T23:24:23.179Z,9.47
2022-09-18T23:26:52.915Z,9.46
2022-09-18T23:29:24.468Z,9.48
2022-09-18T23:31:53.802Z,9.38
2022-09-18T23:34:23.731Z,9.25
2022-09-18T23:36:54.730Z,9.21
2022-09-18T23:39:28.890Z,9.11
2022-09-18T23:41:58.724Z,9.16
2022-09-18T23:44:28.545Z,9.08
2022-09-18T23:46:56.107Z,9.17
2022-09-18T23:49:23.751Z,9.07
2022-09-18T23:51:53.937Z,9.05
2022-09-18T23:54:27.454Z,9.10
2022-09-18T23:56:58.647Z,9.05
2022-09-18T23:59:26.871Z,9.03
